首页
METAR-TAF:

METAR-TAF

机场 :

山景城, 加利福尼亚州, 美国

纬度: 37-24-21N, 经度: 122-02-53W, 海拔: 10米

当前天气观测

该预报发布于43分钟前的23:55 UTC
风速17节,风向
温度 20°C
湿度 60%
气压 1014 hPa
能見度: 9.7公里
天空无云

METAR: KNUQ 202355Z AUTO 35017KT 6SM HZ CLR 20/12 A2993 RMK AO2

时间: 17:38 (00:38 UTC)


TAF: 丢失

超过4000个机场的气象观测和天气预报(METAR&TAF报告)。

可查询的气象台以黄色和红色小点在地图上表示。

将鼠标移到小点上方,可查看气象台名称。

然后点击查看天气观测和预报。

如需切换地图:点击带黑十字的绿色按钮放大地图;点击带横线的绿色按钮缩小地图;或者点击绿色箭头查看邻近地区的地图。


METAR-TAF: